Detall de PIREP

Printer-friendly versionPDF version

[2015/04/25 15:18:00]
Flight IATA:CT1060
Pilot Number:026
Company ICAO:CAT
Aircraft Type:DC85/A
PAX:132
Aircraft Registration:PAX
Departing Airport: LFMP
Destination Airport: LEAL
Alternate Airport:LEVC
Online: VATSIM
Route:BGR UN855 POS UL129 LULAK UM603 GERVU
Flight Level:F350
No Slew and time accel
No pause
Crash detect
Detect pilot in Cockpit between each 30 and 45 minutes
15:18 Zero fuel Weight: 179271 Lbs, Fuel Weight: 30002 Lbs
15:18 VATSIM:LFMP 251500Z AUTO 07005KT 040V120 9999 FEW042/// BKN056/// OVC130/// ///TCU 20/15 Q1011
15:18 VATSIM:LEAL 251500Z 15006KT 100V200 CAVOK 24/10 Q1012 NOSIG
15:19 ALMOGAVERS ROUTE / LEG1
15:39 Parking Brakes off
15:45 Take-off
15:45 Take off Weight: 208274 Lbs
15:45 Wind: 086º @ 005 Knots Heading: 330º
15:45 POS N42º 44´ 57´´ E002º 51´ 57´´
15:45 Gear Up: 172 Knots
15:45 Flaps:2 at 173 Knots
15:47 Flaps:1 at 232 Knots
15:48 Flaps:0 at 206 Knots
16:00 Wind:172º@038 Knots Heading: 225º Ground Speed: 347 Knots Altitude 32004 ft
16:02 TOC
16:02 Fuel Weight: 24018 Lb
16:15 Wind:195º@028 Knots Heading: 188º Ground Speed: 443 Knots Altitude 35000 ft
16:30 Wind:218º@030 Knots Heading: 247º Ground Speed: 414 Knots Altitude 34986 ft
16:30 TOD
16:30 Fuel Weight: 18556 Lb
16:45 Wind:212º@006 Knots Heading: 254º Ground Speed: 388 Knots Altitude 18188 ft
16:59 Flaps:1 at 181 Knots
17:00 Wind:151º@011 Knots Heading: 131º Ground Speed: 196 Knots Altitude 4799 ft
17:00 Flaps:2 at 191 Knots
17:01 Gear Down: 201 Knots
17:01 Flaps:3 at 164 Knots
17:02 Flaps:4 at 163 Knots
17:03 Flaps:5 at 157 Knots
17:04 TouchDown:Rate -73 ft/min Speed: 131 Knots
17:04 VATSIM:LEAL 251630Z 14006KT 070V220 CAVOK 24/10 Q1012 NOSIG
17:04 Land
17:04 Wind:166º@006 Knots
17:04 Heading: 102º
17:04 Flight Duration: 01:19
17:04 Landing Weight: 194597 Lbs
17:04 POS N38º 16´ 54´´ W000º 33´ 19´´
17:12 Parking brakes on
17:12 Block to Block Duration: 01:33
17:12 Final Fuel: 14799 Lbls
17:12 Spent Fuel: 15202 Lbls
17:12 Flight Length: 445 NM
17:12 TOD Land Length: 159 NM

Exportar CSV

Powered by Drupal - Modified by Danger4k